sensor_id;sensor_type;location;lat;lon;timestamp;P1;durP1;ratioP1;P2;durP2;ratioP2
56239;SDS011;42154;51.992;5.896;2024-02-28T00:01:24;38.25;;;20.58;;
56239;SDS011;42154;51.992;5.896;2024-02-28T00:03:50;36.55;;;20.95;;
56239;SDS011;42154;51.992;5.896;2024-02-28T00:06:16;34.10;;;19.90;;
56239;SDS011;42154;51.992;5.896;2024-02-28T00:08:42;37.20;;;21.50;;
56239;SDS011;42154;51.992;5.896;2024-02-28T00:11:09;37.50;;;22.02;;
56239;SDS011;42154;51.992;5.896;2024-02-28T00:13:34;48.08;;;24.33;;
56239;SDS011;42154;51.992;5.896;2024-02-28T00:16:00;39.40;;;21.48;;
56239;SDS011;42154;51.992;5.896;2024-02-28T00:18:26;37.45;;;21.13;;
56239;SDS011;42154;51.992;5.896;2024-02-28T00:20:52;37.30;;;20.80;;
56239;SDS011;42154;51.992;5.896;2024-02-28T00:23:19;35.78;;;20.15;;
56239;SDS011;42154;51.992;5.896;2024-02-28T00:25:45;41.13;;;21.25;;
56239;SDS011;42154;51.992;5.896;2024-02-28T00:28:11;39.22;;;22.48;;
56239;SDS011;42154;51.992;5.896;2024-02-28T00:30:37;39.42;;;22.25;;
56239;SDS011;42154;51.992;5.896;2024-02-28T00:33:03;39.42;;;22.48;;
56239;SDS011;42154;51.992;5.896;2024-02-28T00:37:58;35.13;;;19.65;;
56239;SDS011;42154;51.992;5.896;2024-02-28T00:40:23;43.85;;;22.20;;
56239;SDS011;42154;51.992;5.896;2024-02-28T00:42:50;39.03;;;22.88;;
56239;SDS011;42154;51.992;5.896;2024-02-28T00:45:16;35.63;;;21.75;;
56239;SDS011;42154;51.992;5.896;2024-02-28T00:47:42;36.72;;;21.50;;
56239;SDS011;42154;51.992;5.896;2024-02-28T00:50:09;37.60;;;21.17;;
56239;SDS011;42154;51.992;5.896;2024-02-28T00:52:34;35.72;;;19.65;;
56239;SDS011;42154;51.992;5.896;2024-02-28T00:55:00;35.45;;;19.95;;
56239;SDS011;42154;51.992;5.896;2024-02-28T00:57:26;41.17;;;22.92;;
56239;SDS011;42154;51.992;5.896;2024-02-28T00:59:52;42.58;;;23.02;;
56239;SDS011;42154;51.992;5.896;2024-02-28T01:02:19;38.80;;;22.20;;
56239;SDS011;42154;51.992;5.896;2024-02-28T01:04:46;37.75;;;22.00;;
56239;SDS011;42154;51.992;5.896;2024-02-28T01:07:12;39.05;;;22.70;;
56239;SDS011;42154;51.992;5.896;2024-02-28T01:09:38;44.08;;;24.73;;
56239;SDS011;42154;51.992;5.896;2024-02-28T01:12:03;43.58;;;25.83;;
56239;SDS011;42154;51.992;5.896;2024-02-28T01:14:30;43.60;;;24.08;;
56239;SDS011;42154;51.992;5.896;2024-02-28T01:16:55;37.38;;;21.27;;
56239;SDS011;42154;51.992;5.896;2024-02-28T01:19:21;45.63;;;24.73;;
56239;SDS011;42154;51.992;5.896;2024-02-28T01:21:47;38.47;;;22.63;;
56239;SDS011;42154;51.992;5.896;2024-02-28T01:24:12;38.85;;;21.35;;
56239;SDS011;42154;51.992;5.896;2024-02-28T01:26:38;37.45;;;21.52;;
56239;SDS011;42154;51.992;5.896;2024-02-28T01:29:05;41.65;;;23.27;;
56239;SDS011;42154;51.992;5.896;2024-02-28T01:31:31;37.40;;;21.35;;
56239;SDS011;42154;51.992;5.896;2024-02-28T01:33:57;36.75;;;20.13;;
56239;SDS011;42154;51.992;5.896;2024-02-28T01:36:23;38.67;;;21.67;;
56239;SDS011;42154;51.992;5.896;2024-02-28T01:38:48;42.70;;;24.08;;
56239;SDS011;42154;51.992;5.896;2024-02-28T01:41:14;44.88;;;25.27;;
56239;SDS011;42154;51.992;5.896;2024-02-28T01:43:40;41.63;;;24.08;;
56239;SDS011;42154;51.992;5.896;2024-02-28T01:46:12;44.83;;;24.92;;
56239;SDS011;42154;51.992;5.896;2024-02-28T01:48:47;41.60;;;23.05;;
56239;SDS011;42154;51.992;5.896;2024-02-28T01:51:13;45.80;;;25.15;;
56239;SDS011;42154;51.992;5.896;2024-02-28T01:53:39;46.63;;;25.05;;
56239;SDS011;42154;51.992;5.896;2024-02-28T01:56:05;42.50;;;22.90;;
56239;SDS011;42154;51.992;5.896;2024-02-28T01:58:31;41.15;;;24.08;;
56239;SDS011;42154;51.992;5.896;2024-02-28T02:00:57;43.40;;;25.58;;
56239;SDS011;42154;51.992;5.896;2024-02-28T02:03:25;41.95;;;24.33;;
56239;SDS011;42154;51.992;5.896;2024-02-28T02:05:50;66.53;;;28.48;;
56239;SDS011;42154;51.992;5.896;2024-02-28T02:08:16;46.33;;;24.67;;
56239;SDS011;42154;51.992;5.896;2024-02-28T02:10:42;45.22;;;25.13;;
56239;SDS011;42154;51.992;5.896;2024-02-28T02:13:07;43.40;;;24.95;;
56239;SDS011;42154;51.992;5.896;2024-02-28T02:15:33;44.80;;;24.98;;
56239;SDS011;42154;51.992;5.896;2024-02-28T02:17:59;40.00;;;23.05;;
56239;SDS011;42154;51.992;5.896;2024-02-28T02:20:25;37.60;;;21.58;;
56239;SDS011;42154;51.992;5.896;2024-02-28T02:22:55;37.80;;;22.15;;
56239;SDS011;42154;51.992;5.896;2024-02-28T02:25:21;42.45;;;21.63;;
56239;SDS011;42154;51.992;5.896;2024-02-28T02:27:47;40.63;;;22.45;;
56239;SDS011;42154;51.992;5.896;2024-02-28T02:30:13;36.10;;;20.88;;
56239;SDS011;42154;51.992;5.896;2024-02-28T02:32:38;34.33;;;20.50;;
56239;SDS011;42154;51.992;5.896;2024-02-28T02:35:04;32.42;;;19.80;;
56239;SDS011;42154;51.992;5.896;2024-02-28T02:37:30;44.58;;;21.02;;
56239;SDS011;42154;51.992;5.896;2024-02-28T02:39:56;53.50;;;24.13;;
56239;SDS011;42154;51.992;5.896;2024-02-28T02:42:22;35.53;;;20.95;;
56239;SDS011;42154;51.992;5.896;2024-02-28T02:44:47;38.30;;;21.27;;
56239;SDS011;42154;51.992;5.896;2024-02-28T02:47:13;43.08;;;21.20;;
56239;SDS011;42154;51.992;5.896;2024-02-28T02:49:39;39.65;;;19.90;;
56239;SDS011;42154;51.992;5.896;2024-02-28T02:52:05;32.42;;;19.40;;
56239;SDS011;42154;51.992;5.896;2024-02-28T02:54:31;36.42;;;19.90;;
56239;SDS011;42154;51.992;5.896;2024-02-28T02:56:56;35.20;;;19.35;;
56239;SDS011;42154;51.992;5.896;2024-02-28T02:59:22;35.33;;;19.25;;
56239;SDS011;42154;51.992;5.896;2024-02-28T03:01:49;30.75;;;18.15;;
56239;SDS011;42154;51.992;5.896;2024-02-28T03:04:15;33.28;;;19.20;;
56239;SDS011;42154;51.992;5.896;2024-02-28T03:06:40;39.72;;;18.65;;
56239;SDS011;42154;51.992;5.896;2024-02-28T03:09:06;29.55;;;18.77;;
56239;SDS011;42154;51.992;5.896;2024-02-28T03:11:32;35.85;;;19.77;;
56239;SDS011;42154;51.992;5.896;2024-02-28T03:14:00;29.65;;;17.92;;
56239;SDS011;42154;51.992;5.896;2024-02-28T03:16:26;28.63;;;17.30;;
56239;SDS011;42154;51.992;5.896;2024-02-28T03:18:52;30.00;;;17.55;;
56239;SDS011;42154;51.992;5.896;2024-02-28T03:21:19;34.08;;;18.13;;
56239;SDS011;42154;51.992;5.896;2024-02-28T03:23:45;37.75;;;19.20;;
56239;SDS011;42154;51.992;5.896;2024-02-28T03:26:11;35.50;;;18.90;;
56239;SDS011;42154;51.992;5.896;2024-02-28T03:28:37;32.58;;;19.23;;
56239;SDS011;42154;51.992;5.896;2024-02-28T03:31:02;28.73;;;17.92;;
56239;SDS011;42154;51.992;5.896;2024-02-28T03:33:28;27.88;;;16.90;;
56239;SDS011;42154;51.992;5.896;2024-02-28T03:35:56;28.52;;;17.55;;
56239;SDS011;42154;51.992;5.896;2024-02-28T03:38:22;29.95;;;18.25;;
56239;SDS011;42154;51.992;5.896;2024-02-28T03:40:48;28.70;;;18.20;;
56239;SDS011;42154;51.992;5.896;2024-02-28T03:43:13;29.35;;;17.73;;
56239;SDS011;42154;51.992;5.896;2024-02-28T03:45:39;29.23;;;18.08;;
56239;SDS011;42154;51.992;5.896;2024-02-28T03:48:06;27.00;;;16.52;;
56239;SDS011;42154;51.992;5.896;2024-02-28T03:50:32;35.20;;;19.02;;
56239;SDS011;42154;51.992;5.896;2024-02-28T03:52:58;28.55;;;17.35;;
56239;SDS011;42154;51.992;5.896;2024-02-28T03:55:23;29.02;;;16.77;;
56239;SDS011;42154;51.992;5.896;2024-02-28T03:57:49;33.88;;;18.38;;
56239;SDS011;42154;51.992;5.896;2024-02-28T04:00:17;34.30;;;18.90;;
56239;SDS011;42154;51.992;5.896;2024-02-28T04:02:43;31.13;;;18.05;;
56239;SDS011;42154;51.992;5.896;2024-02-28T04:05:09;31.33;;;18.70;;
56239;SDS011;42154;51.992;5.896;2024-02-28T04:07:34;31.65;;;18.50;;
56239;SDS011;42154;51.992;5.896;2024-02-28T04:10:00;32.35;;;19.98;;
56239;SDS011;42154;51.992;5.896;2024-02-28T04:12:26;38.08;;;21.48;;
56239;SDS011;42154;51.992;5.896;2024-02-28T04:14:52;31.13;;;19.20;;
56239;SDS011;42154;51.992;5.896;2024-02-28T04:17:18;30.95;;;18.90;;
56239;SDS011;42154;51.992;5.896;2024-02-28T04:19:43;34.10;;;18.73;;
56239;SDS011;42154;51.992;5.896;2024-02-28T04:22:09;28.02;;;18.10;;
56239;SDS011;42154;51.992;5.896;2024-02-28T04:24:35;30.73;;;18.63;;
56239;SDS011;42154;51.992;5.896;2024-02-28T04:27:01;29.48;;;18.42;;
56239;SDS011;42154;51.992;5.896;2024-02-28T04:29:29;30.65;;;19.08;;
56239;SDS011;42154;51.992;5.896;2024-02-28T04:31:56;28.20;;;17.90;;
56239;SDS011;42154;51.992;5.896;2024-02-28T04:34:21;34.22;;;17.95;;
56239;SDS011;42154;51.992;5.896;2024-02-28T04:36:47;25.52;;;16.48;;
56239;SDS011;42154;51.992;5.896;2024-02-28T04:39:13;34.25;;;20.67;;
56239;SDS011;42154;51.992;5.896;2024-02-28T04:41:38;27.27;;;17.33;;
56239;SDS011;42154;51.992;5.896;2024-02-28T04:44:04;30.15;;;18.85;;
56239;SDS011;42154;51.992;5.896;2024-02-28T04:46:30;31.15;;;18.63;;
56239;SDS011;42154;51.992;5.896;2024-02-28T04:48:56;29.02;;;18.00;;
56239;SDS011;42154;51.992;5.896;2024-02-28T04:51:21;34.28;;;18.33;;
56239;SDS011;42154;51.992;5.896;2024-02-28T04:53:47;27.10;;;17.75;;
56239;SDS011;42154;51.992;5.896;2024-02-28T04:56:13;27.52;;;17.55;;
56239;SDS011;42154;51.992;5.896;2024-02-28T04:58:38;27.70;;;17.55;;
56239;SDS011;42154;51.992;5.896;2024-02-28T05:01:04;32.75;;;19.08;;
56239;SDS011;42154;51.992;5.896;2024-02-28T05:03:31;28.33;;;18.08;;
56239;SDS011;42154;51.992;5.896;2024-02-28T05:05:57;31.52;;;19.35;;
56239;SDS011;42154;51.992;5.896;2024-02-28T05:08:22;27.10;;;18.83;;
56239;SDS011;42154;51.992;5.896;2024-02-28T05:10:49;28.52;;;18.67;;
56239;SDS011;42154;51.992;5.896;2024-02-28T05:13:16;35.80;;;20.77;;
56239;SDS011;42154;51.992;5.896;2024-02-28T05:15:41;28.77;;;19.00;;
56239;SDS011;42154;51.992;5.896;2024-02-28T05:18:07;30.60;;;19.00;;
56239;SDS011;42154;51.992;5.896;2024-02-28T05:20:33;27.00;;;17.77;;
56239;SDS011;42154;51.992;5.896;2024-02-28T05:22:58;27.58;;;18.92;;
56239;SDS011;42154;51.992;5.896;2024-02-28T05:25:24;28.83;;;18.45;;
56239;SDS011;42154;51.992;5.896;2024-02-28T05:27:51;28.73;;;18.38;;
56239;SDS011;42154;51.992;5.896;2024-02-28T05:30:17;28.60;;;18.48;;
56239;SDS011;42154;51.992;5.896;2024-02-28T05:32:43;28.33;;;19.10;;
56239;SDS011;42154;51.992;5.896;2024-02-28T05:35:08;26.98;;;17.83;;
56239;SDS011;42154;51.992;5.896;2024-02-28T05:37:36;25.13;;;17.25;;
56239;SDS011;42154;51.992;5.896;2024-02-28T05:40:02;25.02;;;16.73;;
56239;SDS011;42154;51.992;5.896;2024-02-28T05:42:28;26.38;;;17.58;;
56239;SDS011;42154;51.992;5.896;2024-02-28T05:44:56;27.15;;;17.85;;
56239;SDS011;42154;51.992;5.896;2024-02-28T05:47:22;27.48;;;18.30;;
56239;SDS011;42154;51.992;5.896;2024-02-28T05:49:48;24.85;;;16.73;;
56239;SDS011;42154;51.992;5.896;2024-02-28T05:52:13;27.63;;;19.00;;
56239;SDS011;42154;51.992;5.896;2024-02-28T05:54:40;25.48;;;16.83;;
56239;SDS011;42154;51.992;5.896;2024-02-28T05:57:08;30.65;;;19.60;;
56239;SDS011;42154;51.992;5.896;2024-02-28T05:59:34;27.70;;;19.08;;
56239;SDS011;42154;51.992;5.896;2024-02-28T06:02:00;31.05;;;20.15;;
56239;SDS011;42154;51.992;5.896;2024-02-28T06:04:25;27.60;;;18.38;;
56239;SDS011;42154;51.992;5.896;2024-02-28T06:06:51;28.63;;;19.58;;
56239;SDS011;42154;51.992;5.896;2024-02-28T06:09:17;23.13;;;16.27;;
56239;SDS011;42154;51.992;5.896;2024-02-28T06:11:42;25.77;;;17.92;;
56239;SDS011;42154;51.992;5.896;2024-02-28T06:14:08;24.15;;;16.13;;
56239;SDS011;42154;51.992;5.896;2024-02-28T06:16:34;22.48;;;15.68;;
56239;SDS011;42154;51.992;5.896;2024-02-28T06:18:59;20.55;;;14.18;;
56239;SDS011;42154;51.992;5.896;2024-02-28T06:21:25;22.10;;;16.15;;
56239;SDS011;42154;51.992;5.896;2024-02-28T06:23:51;26.55;;;16.67;;
56239;SDS011;42154;51.992;5.896;2024-02-28T06:26:17;24.38;;;16.75;;
56239;SDS011;42154;51.992;5.896;2024-02-28T06:28:43;24.52;;;17.75;;
56239;SDS011;42154;51.992;5.896;2024-02-28T06:31:15;25.83;;;17.83;;
56239;SDS011;42154;51.992;5.896;2024-02-28T06:33:42;23.80;;;16.65;;
56239;SDS011;42154;51.992;5.896;2024-02-28T06:36:08;23.98;;;16.63;;
56239;SDS011;42154;51.992;5.896;2024-02-28T06:38:34;22.85;;;16.02;;
56239;SDS011;42154;51.992;5.896;2024-02-28T06:41:03;22.63;;;16.38;;
56239;SDS011;42154;51.992;5.896;2024-02-28T06:43:32;18.03;;;12.00;;
56239;SDS011;42154;51.992;5.896;2024-02-28T06:45:58;18.98;;;14.15;;
56239;SDS011;42154;51.992;5.896;2024-02-28T06:48:24;19.95;;;13.70;;
56239;SDS011;42154;51.992;5.896;2024-02-28T06:50:50;20.33;;;14.82;;
56239;SDS011;42154;51.992;5.896;2024-02-28T06:53:15;22.15;;;14.88;;
56239;SDS011;42154;51.992;5.896;2024-02-28T06:55:42;21.23;;;15.45;;
56239;SDS011;42154;51.992;5.896;2024-02-28T06:58:09;20.77;;;14.35;;
56239;SDS011;42154;51.992;5.896;2024-02-28T07:00:35;21.48;;;14.90;;
56239;SDS011;42154;51.992;5.896;2024-02-28T07:03:00;21.55;;;15.25;;
56239;SDS011;42154;51.992;5.896;2024-02-28T07:05:26;22.85;;;17.08;;
56239;SDS011;42154;51.992;5.896;2024-02-28T07:07:52;23.67;;;16.67;;
56239;SDS011;42154;51.992;5.896;2024-02-28T07:10:19;24.77;;;17.02;;
56239;SDS011;42154;51.992;5.896;2024-02-28T07:12:44;27.02;;;19.02;;
56239;SDS011;42154;51.992;5.896;2024-02-28T07:15:10;26.70;;;17.55;;
56239;SDS011;42154;51.992;5.896;2024-02-28T07:17:36;26.38;;;17.65;;
56239;SDS011;42154;51.992;5.896;2024-02-28T07:20:02;25.75;;;17.67;;
56239;SDS011;42154;51.992;5.896;2024-02-28T07:22:27;24.58;;;17.55;;
56239;SDS011;42154;51.992;5.896;2024-02-28T07:24:53;24.88;;;17.52;;
56239;SDS011;42154;51.992;5.896;2024-02-28T07:27:21;22.70;;;15.88;;
56239;SDS011;42154;51.992;5.896;2024-02-28T07:29:48;25.73;;;18.67;;
56239;SDS011;42154;51.992;5.896;2024-02-28T07:32:13;25.48;;;18.33;;
56239;SDS011;42154;51.992;5.896;2024-02-28T07:34:39;24.90;;;18.05;;
56239;SDS011;42154;51.992;5.896;2024-02-28T07:37:05;25.80;;;18.67;;
56239;SDS011;42154;51.992;5.896;2024-02-28T07:39:31;23.70;;;17.02;;
56239;SDS011;42154;51.992;5.896;2024-02-28T07:41:56;25.05;;;16.98;;
56239;SDS011;42154;51.992;5.896;2024-02-28T07:44:22;25.02;;;17.48;;
56239;SDS011;42154;51.992;5.896;2024-02-28T07:46:48;27.35;;;19.20;;
56239;SDS011;42154;51.992;5.896;2024-02-28T07:49:15;26.35;;;18.35;;
56239;SDS011;42154;51.992;5.896;2024-02-28T07:51:41;26.02;;;18.00;;
56239;SDS011;42154;51.992;5.896;2024-02-28T07:54:07;27.02;;;19.00;;
56239;SDS011;42154;51.992;5.896;2024-02-28T07:56:32;29.88;;;21.85;;
56239;SDS011;42154;51.992;5.896;2024-02-28T07:58:58;28.70;;;19.77;;
56239;SDS011;42154;51.992;5.896;2024-02-28T08:01:24;32.22;;;22.00;;
56239;SDS011;42154;51.992;5.896;2024-02-28T08:03:49;29.17;;;20.92;;
56239;SDS011;42154;51.992;5.896;2024-02-28T08:06:15;29.65;;;20.08;;
56239;SDS011;42154;51.992;5.896;2024-02-28T08:08:43;29.00;;;20.70;;
56239;SDS011;42154;51.992;5.896;2024-02-28T08:11:10;33.25;;;22.27;;
56239;SDS011;42154;51.992;5.896;2024-02-28T08:13:36;30.38;;;21.45;;
56239;SDS011;42154;51.992;5.896;2024-02-28T08:16:02;33.40;;;22.92;;
56239;SDS011;42154;51.992;5.896;2024-02-28T08:18:28;37.03;;;23.38;;
56239;SDS011;42154;51.992;5.896;2024-02-28T08:20:54;34.10;;;23.38;;
56239;SDS011;42154;51.992;5.896;2024-02-28T08:23:22;30.73;;;21.55;;
56239;SDS011;42154;51.992;5.896;2024-02-28T08:25:48;32.75;;;21.77;;
56239;SDS011;42154;51.992;5.896;2024-02-28T08:28:14;33.85;;;22.23;;
56239;SDS011;42154;51.992;5.896;2024-02-28T08:30:40;31.40;;;22.02;;
56239;SDS011;42154;51.992;5.896;2024-02-28T08:33:06;42.97;;;26.77;;
56239;SDS011;42154;51.992;5.896;2024-02-28T08:35:34;35.22;;;23.90;;
56239;SDS011;42154;51.992;5.896;2024-02-28T08:37:59;39.58;;;24.55;;
56239;SDS011;42154;51.992;5.896;2024-02-28T08:40:27;45.97;;;27.02;;
56239;SDS011;42154;51.992;5.896;2024-02-28T08:42:52;41.83;;;26.60;;
56239;SDS011;42154;51.992;5.896;2024-02-28T08:45:19;42.65;;;26.10;;
56239;SDS011;42154;51.992;5.896;2024-02-28T08:47:45;40.17;;;25.35;;
56239;SDS011;42154;51.992;5.896;2024-02-28T08:50:11;42.15;;;27.15;;
56239;SDS011;42154;51.992;5.896;2024-02-28T08:52:37;49.00;;;29.65;;
56239;SDS011;42154;51.992;5.896;2024-02-28T08:55:02;42.05;;;27.08;;
56239;SDS011;42154;51.992;5.896;2024-02-28T08:57:28;42.67;;;26.13;;
56239;SDS011;42154;51.992;5.896;2024-02-28T08:59:55;50.88;;;28.77;;
56239;SDS011;42154;51.992;5.896;2024-02-28T09:02:21;44.80;;;24.88;;
56239;SDS011;42154;51.992;5.896;2024-02-28T09:04:47;45.60;;;28.25;;
56239;SDS011;42154;51.992;5.896;2024-02-28T09:07:19;41.85;;;26.02;;
56239;SDS011;42154;51.992;5.896;2024-02-28T09:09:45;37.67;;;25.90;;
56239;SDS011;42154;51.992;5.896;2024-02-28T09:12:11;47.42;;;28.80;;
56239;SDS011;42154;51.992;5.896;2024-02-28T09:14:37;43.47;;;27.48;;
56239;SDS011;42154;51.992;5.896;2024-02-28T09:17:03;38.97;;;25.63;;
56239;SDS011;42154;51.992;5.896;2024-02-28T09:19:30;40.00;;;24.65;;
56239;SDS011;42154;51.992;5.896;2024-02-28T09:21:56;36.72;;;23.98;;
56239;SDS011;42154;51.992;5.896;2024-02-28T09:24:23;33.25;;;21.98;;
56239;SDS011;42154;51.992;5.896;2024-02-28T09:26:49;34.50;;;21.92;;
56239;SDS011;42154;51.992;5.896;2024-02-28T09:29:15;34.95;;;21.80;;
56239;SDS011;42154;51.992;5.896;2024-02-28T09:31:40;35.70;;;22.55;;
56239;SDS011;42154;51.992;5.896;2024-02-28T09:34:06;35.00;;;23.10;;
56239;SDS011;42154;51.992;5.896;2024-02-28T09:36:43;38.13;;;24.25;;
56239;SDS011;42154;51.992;5.896;2024-02-28T09:39:13;36.53;;;25.05;;
56239;SDS011;42154;51.992;5.896;2024-02-28T09:41:42;37.83;;;22.88;;
56239;SDS011;42154;51.992;5.896;2024-02-28T09:44:08;34.38;;;23.00;;
56239;SDS011;42154;51.992;5.896;2024-02-28T09:46:35;38.50;;;23.58;;
56239;SDS011;42154;51.992;5.896;2024-02-28T09:49:04;36.47;;;22.85;;
56239;SDS011;42154;51.992;5.896;2024-02-28T09:51:32;39.58;;;25.42;;
56239;SDS011;42154;51.992;5.896;2024-02-28T09:54:02;40.45;;;26.80;;
56239;SDS011;42154;51.992;5.896;2024-02-28T09:56:29;40.15;;;26.55;;
56239;SDS011;42154;51.992;5.896;2024-02-28T09:58:55;40.72;;;27.48;;
56239;SDS011;42154;51.992;5.896;2024-02-28T10:01:22;38.72;;;24.58;;
56239;SDS011;42154;51.992;5.896;2024-02-28T10:03:51;37.75;;;24.25;;
56239;SDS011;42154;51.992;5.896;2024-02-28T10:06:20;39.75;;;25.50;;
56239;SDS011;42154;51.992;5.896;2024-02-28T10:08:46;32.38;;;21.83;;
56239;SDS011;42154;51.992;5.896;2024-02-28T10:11:21;33.15;;;22.80;;
56239;SDS011;42154;51.992;5.896;2024-02-28T10:13:48;36.88;;;24.00;;
56239;SDS011;42154;51.992;5.896;2024-02-28T10:16:14;39.67;;;24.80;;
56239;SDS011;42154;51.992;5.896;2024-02-28T10:18:44;38.85;;;25.83;;
56239;SDS011;42154;51.992;5.896;2024-02-28T10:21:13;43.63;;;29.15;;
56239;SDS011;42154;51.992;5.896;2024-02-28T10:23:43;45.17;;;27.95;;
56239;SDS011;42154;51.992;5.896;2024-02-28T10:26:10;39.08;;;27.60;;
56239;SDS011;42154;51.992;5.896;2024-02-28T10:28:37;43.20;;;28.27;;
56239;SDS011;42154;51.992;5.896;2024-02-28T10:31:04;39.95;;;27.55;;
56239;SDS011;42154;51.992;5.896;2024-02-28T10:33:30;47.33;;;31.45;;
56239;SDS011;42154;51.992;5.896;2024-02-28T10:35:58;43.40;;;28.05;;
56239;SDS011;42154;51.992;5.896;2024-02-28T10:38:26;42.00;;;27.88;;
56239;SDS011;42154;51.992;5.896;2024-02-28T10:40:52;49.55;;;31.27;;
56239;SDS011;42154;51.992;5.896;2024-02-28T10:43:19;44.88;;;29.65;;
56239;SDS011;42154;51.992;5.896;2024-02-28T10:45:45;38.15;;;27.52;;
56239;SDS011;42154;51.992;5.896;2024-02-28T10:48:13;41.88;;;29.17;;
56239;SDS011;42154;51.992;5.896;2024-02-28T10:50:40;45.42;;;28.98;;
56239;SDS011;42154;51.992;5.896;2024-02-28T10:53:12;42.20;;;26.23;;
56239;SDS011;42154;51.992;5.896;2024-02-28T10:55:40;40.75;;;27.15;;
56239;SDS011;42154;51.992;5.896;2024-02-28T10:58:06;39.03;;;26.40;;
56239;SDS011;42154;51.992;5.896;2024-02-28T11:00:35;36.83;;;25.10;;
56239;SDS011;42154;51.992;5.896;2024-02-28T11:03:06;41.35;;;28.08;;
56239;SDS011;42154;51.992;5.896;2024-02-28T11:05:37;37.92;;;27.30;;
56239;SDS011;42154;51.992;5.896;2024-02-28T11:08:05;40.85;;;27.40;;
56239;SDS011;42154;51.992;5.896;2024-02-28T11:10:43;38.70;;;27.50;;
56239;SDS011;42154;51.992;5.896;2024-02-28T11:13:20;37.17;;;24.70;;
56239;SDS011;42154;51.992;5.896;2024-02-28T11:15:47;36.38;;;24.38;;
56239;SDS011;42154;51.992;5.896;2024-02-28T11:18:12;41.83;;;28.20;;
56239;SDS011;42154;51.992;5.896;2024-02-28T11:20:38;41.28;;;27.48;;
56239;SDS011;42154;51.992;5.896;2024-02-28T11:23:07;36.35;;;24.13;;
56239;SDS011;42154;51.992;5.896;2024-02-28T11:25:34;33.87;;;23.60;;
56239;SDS011;42154;51.992;5.896;2024-02-28T11:28:00;37.22;;;24.80;;
56239;SDS011;42154;51.992;5.896;2024-02-28T11:30:26;35.53;;;24.65;;
56239;SDS011;42154;51.992;5.896;2024-02-28T11:32:52;35.72;;;25.00;;
56239;SDS011;42154;51.992;5.896;2024-02-28T11:35:19;31.50;;;22.45;;
56239;SDS011;42154;51.992;5.896;2024-02-28T11:37:45;39.92;;;27.50;;
56239;SDS011;42154;51.992;5.896;2024-02-28T11:40:14;36.10;;;26.05;;
56239;SDS011;42154;51.992;5.896;2024-02-28T11:42:40;34.45;;;24.67;;
56239;SDS011;42154;51.992;5.896;2024-02-28T11:45:09;35.03;;;23.98;;
56239;SDS011;42154;51.992;5.896;2024-02-28T11:47:42;34.90;;;23.85;;
56239;SDS011;42154;51.992;5.896;2024-02-28T11:50:08;34.83;;;23.90;;
56239;SDS011;42154;51.992;5.896;2024-02-28T11:52:33;36.05;;;25.15;;
56239;SDS011;42154;51.992;5.896;2024-02-28T11:54:59;36.05;;;24.10;;
56239;SDS011;42154;51.992;5.896;2024-02-28T11:57:25;32.78;;;23.58;;
56239;SDS011;42154;51.992;5.896;2024-02-28T11:59:51;31.17;;;22.40;;
56239;SDS011;42154;51.992;5.896;2024-02-28T12:02:17;26.27;;;19.85;;
56239;SDS011;42154;51.992;5.896;2024-02-28T12:04:44;26.15;;;19.08;;
56239;SDS011;42154;51.992;5.896;2024-02-28T12:07:10;29.25;;;20.50;;
56239;SDS011;42154;51.992;5.896;2024-02-28T12:09:37;28.45;;;22.38;;
56239;SDS011;42154;51.992;5.896;2024-02-28T12:12:03;32.97;;;23.35;;
56239;SDS011;42154;51.992;5.896;2024-02-28T12:14:32;30.77;;;22.73;;
56239;SDS011;42154;51.992;5.896;2024-02-28T12:17:01;30.42;;;22.40;;
56239;SDS011;42154;51.992;5.896;2024-02-28T12:19:28;31.92;;;22.73;;
56239;SDS011;42154;51.992;5.896;2024-02-28T12:21:54;31.10;;;22.50;;
56239;SDS011;42154;51.992;5.896;2024-02-28T12:24:20;33.40;;;23.88;;
56239;SDS011;42154;51.992;5.896;2024-02-28T12:26:46;31.88;;;23.00;;
56239;SDS011;42154;51.992;5.896;2024-02-28T12:29:12;31.52;;;22.02;;
56239;SDS011;42154;51.992;5.896;2024-02-28T12:31:38;36.53;;;23.90;;
56239;SDS011;42154;51.992;5.896;2024-02-28T12:34:04;31.13;;;23.02;;
56239;SDS011;42154;51.992;5.896;2024-02-28T12:36:30;34.63;;;24.65;;
56239;SDS011;42154;51.992;5.896;2024-02-28T12:38:57;30.88;;;22.85;;
56239;SDS011;42154;51.992;5.896;2024-02-28T12:41:25;33.08;;;24.05;;
56239;SDS011;42154;51.992;5.896;2024-02-28T12:43:53;39.20;;;28.10;;
56239;SDS011;42154;51.992;5.896;2024-02-28T12:46:19;32.53;;;23.17;;
56239;SDS011;42154;51.992;5.896;2024-02-28T12:48:45;32.50;;;22.73;;
56239;SDS011;42154;51.992;5.896;2024-02-28T12:54:07;32.05;;;22.55;;
56239;SDS011;42154;51.992;5.896;2024-02-28T12:56:37;33.30;;;23.38;;
56239;SDS011;42154;51.992;5.896;2024-02-28T12:59:03;30.42;;;22.30;;
56239;SDS011;42154;51.992;5.896;2024-02-28T13:01:31;34.72;;;22.52;;
56239;SDS011;42154;51.992;5.896;2024-02-28T13:03:57;34.50;;;23.67;;
56239;SDS011;42154;51.992;5.896;2024-02-28T13:06:22;32.30;;;22.65;;
56239;SDS011;42154;51.992;5.896;2024-02-28T13:08:48;30.95;;;22.67;;
56239;SDS011;42154;51.992;5.896;2024-02-28T13:11:17;29.17;;;21.52;;
56239;SDS011;42154;51.992;5.896;2024-02-28T13:13:44;27.88;;;20.15;;
56239;SDS011;42154;51.992;5.896;2024-02-28T13:16:10;28.20;;;20.35;;
56239;SDS011;42154;51.992;5.896;2024-02-28T13:18:36;27.13;;;19.73;;
56239;SDS011;42154;51.992;5.896;2024-02-28T13:21:02;30.80;;;22.42;;
56239;SDS011;42154;51.992;5.896;2024-02-28T13:23:30;29.30;;;20.38;;
56239;SDS011;42154;51.992;5.896;2024-02-28T13:25:56;29.35;;;20.33;;
56239;SDS011;42154;51.992;5.896;2024-02-28T13:28:22;26.63;;;18.13;;
56239;SDS011;42154;51.992;5.896;2024-02-28T13:30:58;24.88;;;17.25;;
56239;SDS011;42154;51.992;5.896;2024-02-28T13:33:25;30.40;;;21.50;;
56239;SDS011;42154;51.992;5.896;2024-02-28T13:35:51;30.08;;;22.23;;
56239;SDS011;42154;51.992;5.896;2024-02-28T13:38:18;26.77;;;19.73;;
56239;SDS011;42154;51.992;5.896;2024-02-28T13:40:44;28.35;;;20.83;;
56239;SDS011;42154;51.992;5.896;2024-02-28T13:43:11;24.25;;;18.35;;
56239;SDS011;42154;51.992;5.896;2024-02-28T13:45:46;25.42;;;17.40;;
56239;SDS011;42154;51.992;5.896;2024-02-28T13:48:17;27.70;;;19.52;;
56239;SDS011;42154;51.992;5.896;2024-02-28T13:50:56;28.15;;;17.95;;
56239;SDS011;42154;51.992;5.896;2024-02-28T13:53:22;25.83;;;18.45;;
56239;SDS011;42154;51.992;5.896;2024-02-28T13:55:50;27.17;;;18.35;;
56239;SDS011;42154;51.992;5.896;2024-02-28T13:58:16;25.60;;;19.10;;
56239;SDS011;42154;51.992;5.896;2024-02-28T14:00:44;26.05;;;17.73;;
56239;SDS011;42154;51.992;5.896;2024-02-28T14:03:11;24.05;;;17.75;;
56239;SDS011;42154;51.992;5.896;2024-02-28T14:05:37;26.00;;;19.35;;
56239;SDS011;42154;51.992;5.896;2024-02-28T14:08:03;24.33;;;18.33;;
56239;SDS011;42154;51.992;5.896;2024-02-28T14:10:31;32.63;;;22.42;;
56239;SDS011;42154;51.992;5.896;2024-02-28T14:12:58;28.15;;;19.42;;
56239;SDS011;42154;51.992;5.896;2024-02-28T14:15:24;32.17;;;22.10;;
56239;SDS011;42154;51.992;5.896;2024-02-28T14:17:50;27.10;;;20.55;;
56239;SDS011;42154;51.992;5.896;2024-02-28T14:20:17;24.35;;;17.30;;
56239;SDS011;42154;51.992;5.896;2024-02-28T14:22:43;24.13;;;17.42;;